Date,TemperatureHighF,TemperatureAvgF,TemperatureLowF,DewpointHighF,DewpointAvgF,DewpointLowF,HumidityHigh,HumidityAvg,HumidityLow,PressureMaxIn,PressureMinIn,WindSpeedMaxMPH,WindSpeedAvgMPH,GustSpeedMaxMPH,PrecipitationSumIn
2013-1-1,19,12,3,13,8,0,96,82,70,30.31,30.09,5,2,10,0.00
2013-1-2,34,23,9,31,20,6,90,86,81,30.19,30.01,6,2,13,0.00
2013-1-3,31,23,16,28,19,13,90,84,74,30.41,30.19,9,4,16,0.00
2013-1-4,30,20,13,21,16,11,100,83,67,30.29,30.11,7,3,11,0.00
2013-1-5,31,22,9,25,18,7,94,83,71,30.19,29.97,15,5,23,0.00
2013-1-6,31,22,9,23,18,7,93,83,72,30.30,30.09,10,3,19,0.00
2013-1-7,38,31,20,30,25,18,94,79,72,30.09,29.93,17,4,25,0.00
2013-1-8,38,27,14,32,24,12,95,88,77,30.12,29.83,10,3,19,0.00
2013-1-9,41,29,17,32,25,15,96,87,68,30.42,30.12,5,1,12,0.00
2013-1-10,39,34,27,36,31,24,98,87,65,30.31,29.65,11,4,5,0.00
2013-1-11,49,39,27,46,38,20,99,95,76,29.73,29.36,12,5,0,0.00
2013-1-12,26,19,11,21,10,5,83,70,63,30.12,29.73,15,8,0,0.00
2013-1-13,21,13,8,9,6,3,86,73,56,30.30,30.12,8,4,0,0.00
2013-1-14,28,16,6,15,10,3,89,78,55,30.43,30.30,6,2,3,0.00
2013-1-15,35,22,10,23,16,7,91,78,60,30.34,30.02,10,4,16,0.00
2013-1-16,52,36,22,36,28,18,88,74,50,30.24,29.88,9,4,15,0.00
2013-1-17,32,28,24,31,27,22,97,95,88,30.46,30.24,5,1,11,0.00
2013-1-18,49,38,28,36,31,27,97,79,59,30.27,29.88,11,5,19,0.00
2013-1-19,53,38,23,36,29,13,92,72,49,30.35,29.86,13,5,26,0.00
2013-1-20,22,17,14,14,10,7,86,73,60,30.41,30.31,8,2,15,0.00
2013-1-21,15,11,5,11,0,-6,84,62,51,30.46,30.33,14,4,26,0.00
2013-1-22,20,13,10,14,8,2,86,80,65,30.36,30.21,7,3,11,0.00
2013-1-23,30,18,10,22,12,2,89,78,65,30.51,30.12,9,3,17,0.00
2013-1-24,19,11,2,8,1,-5,75,66,56,30.55,30.15,12,6,16,0.00
2013-1-25,48,27,11,30,17,6,82,66,47,30.20,30.08,7,2,14,0.00
2013-1-26,49,41,33,31,28,24,70,59,48,30.19,29.97,12,10,0,0.00
2013-1-27,41,38,35,40,36,27,98,91,65,29.97,29.67,11,5,0,0.00
2013-1-28,43,38,34,43,38,34,99,99,98,29.85,29.54,7,3,0,0.00
2013-1-29,39,34,32,39,32,29,99,93,86,29.69,29.54,9,5,0,0.00
2013-1-30,32,23,15,30,19,10,96,85,70,29.91,29.61,12,8,0,0.00
2013-1-31,15,7,1,10,-2,-6,81,67,60,30.41,29.90,15,8,0,0.00
2013-2-1,27,14,-4,22,8,-8,86,77,71,30.42,30.03,13,6,0,0.00
2013-2-2,39,30,22,32,25,19,92,83,71,30.19,30.03,10,3,0,0.00
2013-2-3,42,33,21,32,26,17,84,75,59,30.20,29.75,13,5,0,0.00
2013-2-4,37,27,23,32,24,21,92,87,78,30.01,29.74,9,4,0,0.00
2013-2-5,50,36,26,35,29,24,94,78,48,30.06,29.81,9,3,4,0.00
2013-2-6,53,40,29,42,34,26,91,78,63,30.07,29.81,11,4,17,0.00
2013-2-7,40,33,29,36,30,24,92,87,82,30.22,29.87,12,5,22,0.00
2013-2-8,33,28,25,28,25,23,92,88,81,30.32,30.12,11,6,18,0.00
2013-2-9,49,38,29,40,33,27,93,84,68,30.13,29.66,16,12,25,0.00
2013-2-10,45,37,30,43,34,24,97,87,76,29.79,29.24,19,11,31,0.00
2013-2-11,35,30,23,26,24,21,91,77,67,30.14,29.80,17,7,29,0.00
2013-2-12,49,32,19,29,24,17,95,76,38,30.14,29.89,10,4,18,0.00
2013-2-14,31,27,22,29,22,16,91,81,74,30.28,30.14,12,8,22,0.00
2013-2-15,32,23,13,26,17,10,93,80,58,30.35,30.27,9,3,14,0.00
2013-2-16,34,23,9,28,19,6,100,85,75,30.32,29.97,9,4,16,0.00
2013-2-17,54,38,24,40,30,21,92,73,55,29.99,29.54,15,8,23,0.00
2013-2-18,46,32,22,36,26,16,92,78,62,30.05,29.54,16,8,30,0.00
2013-2-19,27,17,9,17,6,3,79,63,37,30.37,30.05,16,7,25,0.00
2013-2-20,25,16,5,10,5,-1,80,64,51,30.39,30.19,13,6,18,0.00
2013-2-21,25,22,21,21,16,10,94,77,57,30.23,29.82,14,7,19,0.00
2013-2-22,22,18,6,20,16,3,94,89,83,30.01,29.82,9,4,17,0.00
2013-2-23,35,20,4,29,16,1,92,87,78,30.00,29.81,9,3,13,0.00
2013-2-24,39,30,20,30,26,17,93,84,68,30.06,29.86,6,2,11,0.00
2013-2-25,35,29,25,29,26,23,94,88,79,30.07,29.91,9,3,14,0.00
2013-2-26,32,28,24,29,26,23,96,92,86,29.93,29.78,11,5,18,0.00
2013-2-27,37,30,24,28,25,20,91,80,64,30.09,29.89,17,10,26,0.00
2013-2-28,30,28,27,26,24,23,92,86,84,30.21,30.09,12,7,24,0.00
2013-3-1,24,23,23,18,17,17,79,79,79,30.36,30.35,3,2,9,0.00
2013-3-2,35,26,14,26,20,11,91,78,60,30.35,30.08,9,3,15,0.00
2013-3-3,39,32,26,33,28,23,89,82,74,30.08,29.69,19,9,24,0.00
2013-3-4,41,35,30,32,29,22,92,80,64,30.03,29.63,12,5,21,0.00
2013-3-5,33,28,24,23,20,16,80,72,64,30.38,30.01,19,11,32,0.00
2013-3-6,39,28,21,25,21,17,85,75,54,30.42,30.22,11,5,17,0.00
2013-3-7,51,35,24,33,27,20,92,73,48,30.26,30.06,17,10,24,0.00
2013-3-8,56,41,28,41,34,25,91,75,56,30.18,29.89,20,8,24,0.00
2013-3-9,55,45,35,53,43,34,95,92,88,29.88,29.54,15,7,22,0.00
2013-3-10,35,28,23,34,27,22,97,96,93,29.95,29.67,19,10,28,0.00
2013-3-11,32,24,19,24,21,15,95,88,71,29.98,29.85,12,6,20,0.00
2013-3-12,33,27,14,26,21,12,97,80,69,30.32,29.98,16,6,27,0.00
2013-3-13,35,26,13,25,20,9,92,77,60,30.44,30.22,9,3,11,0.00
2013-3-14,56,42,33,45,34,25,95,74,60,30.22,30.04,10,3,0,0.00
2013-3-15,58,44,33,48,39,32,97,83,63,30.05,29.70,5,2,0,0.00
2013-3-16,39,32,28,37,28,25,94,85,76,30.16,29.83,11,5,0,0.00
2013-3-17,45,34,24,35,27,20,95,77,58,30.13,29.71,14,7,0,0.00
2013-3-18,37,34,28,34,24,16,96,69,44,30.02,29.69,16,8,7,0.00
2013-3-19,51,32,20,28,20,14,83,64,31,30.31,30.02,14,3,26,0.00
2013-3-20,37,25,17,19,13,8,80,61,39,30.39,30.10,10,5,22,0.00
2013-3-21,32,26,22,21,16,13,76,64,47,30.10,29.91,11,5,0,0.00
2013-3-22,34,31,27,24,21,19,80,68,58,30.01,29.95,7,3,0,0.00
2013-3-23,38,32,29,30,26,23,94,81,60,30.09,30.00,8,3,0,0.00
2013-3-24,29,27,25,27,23,20,99,84,73,30.08,30.03,13,8,21,0.00
2013-3-25,31,27,24,25,23,19,92,84,72,30.34,30.08,12,8,23,0.00
2013-3-26,42,28,13,26,20,10,90,73,49,30.37,30.22,7,3,13,0.00
2013-3-27,52,38,24,33,27,20,89,68,45,30.25,30.16,15,7,23,0.00
2013-3-28,58,44,29,36,32,27,95,67,38,30.24,30.12,8,2,14,0.00
2013-3-29,69,52,33,42,36,30,93,59,28,30.22,30.02,16,5,23,0.00
2013-3-30,66,56,48,55,45,-100,97,73,40,30.05,29.89,10,4,19,0.00
2013-3-31,57,47,32,44,35,27,95,69,33,30.15,29.93,13,4,25,0.00
2013-4-1,42,31,22,30,22,15,94,70,36,30.34,30.15,8,4,16,0.00
2013-4-2,52,37,22,29,25,19,91,65,40,30.31,30.21,10,2,16,0.00
2013-4-3,57,42,31,33,28,24,76,58,38,30.33,30.18,12,6,20,0.00
2013-4-4,65,47,31,42,34,26,88,62,41,30.20,30.02,11,3,16,0.00
2013-4-5,69,52,32,43,36,28,88,58,31,30.17,29.69,16,8,24,0.00
2013-4-6,70,59,49,47,43,40,78,58,37,29.78,29.56,14,6,25,0.00
2013-4-7,72,56,42,52,45,38,93,71,38,29.83,29.60,15,4,21,0.00
2013-4-8,67,58,47,61,54,46,98,90,79,29.71,29.57,10,4,19,0.00
2013-4-9,63,45,34,61,44,33,96,95,91,29.96,29.57,17,6,26,0.01
2013-4-10,36,35,32,35,34,31,97,96,93,29.97,29.76,17,5,25,0.01
2013-4-11,36,32,29,34,30,27,97,91,85,29.81,29.62,10,6,14,0.00
2013-4-12,41,36,33,32,30,29,90,81,66,29.97,29.70,11,8,0,0.00
2013-4-13,54,49,37,42,38,31,78,67,61,29.99,29.64,20,12,24,0.00
2013-4-14,66,52,43,54,44,36,91,75,53,29.65,29.30,17,8,30,0.00
2013-4-15,46,40,32,36,31,25,90,71,59,30.08,29.65,9,4,18,0.00
2013-4-16,52,43,35,36,32,29,82,67,44,30.24,30.07,11,4,16,0.00
2013-4-17,47,41,37,42,38,35,97,88,67,30.15,29.70,17,5,20,0.01
2013-4-18,37,34,31,35,31,28,96,90,80,29.91,29.70,20,12,30,0.01
2013-4-19,46,37,28,28,25,22,83,64,43,30.10,29.85,14,8,28,0.00
2013-4-20,47,37,26,31,25,21,91,65,41,30.26,30.10,16,6,21,0.00
2013-4-21,66,53,44,50,41,31,96,64,43,30.14,29.96,18,8,28,0.00
2013-4-22,51,42,33,50,41,30,98,95,88,30.21,29.94,12,4,24,0.01
2013-4-23,38,33,30,30,27,24,92,77,63,30.25,30.14,12,7,23,0.01
2013-4-24,59,40,24,40,29,21,90,67,33,30.19,30.03,12,4,4,0.00
2013-4-25,69,50,28,41,35,26,95,63,32,30.24,30.00,14,5,0,0.00
2013-4-26,72,59,50,54,46,38,88,62,43,30.18,30.00,12,7,19,0.00
2013-4-27,70,55,43,55,49,42,98,81,52,30.21,29.91,8,4,11,0.00
2013-4-28,82,64,48,56,52,46,95,68,35,29.92,29.66,13,5,20,0.00
2013-4-29,84,67,54,61,54,47,85,65,34,29.76,29.46,8,2,12,0.00
2013-4-30,74,69,60,61,52,44,66,54,45,29.88,29.44,15,6,24,0.00
2013-5-1,61,41,33,46,38,32,97,88,55,30.40,29.85,12,5,22,0.00
2013-5-2,51,40,33,38,33,31,97,77,57,30.55,30.38,9,4,21,0.01
2013-5-3,50,41,32,38,32,28,87,72,57,30.38,30.03,10,4,19,0.01
2013-5-4,44,40,36,41,37,33,95,90,75,30.13,29.98,9,4,21,0.00
2013-5-5,56,47,42,50,44,40,94,90,80,30.16,30.09,8,3,14,0.00
2013-5-6,69,55,46,55,49,44,94,82,56,30.16,30.01,5,1,9,0.00
2013-5-7,73,59,45,59,53,44,98,83,53,30.06,29.93,11,2,18,0.00
2013-5-8,68,62,56,62,58,53,95,87,78,29.95,29.88,10,2,13,0.00
2013-5-9,67,59,55,60,57,53,98,92,76,30.00,29.86,8,2,15,0.00
2013-5-10,70,57,49,56,48,-100,94,79,49,30.11,30.00,9,2,15,0.00
2013-5-11,60,54,43,50,36,-100,92,55,30,30.27,30.03,13,5,24,0.00
2013-5-12,66,51,32,37,32,26,87,52,26,30.29,30.09,5,1,11,0.00
2013-5-13,83,66,47,56,47,34,81,53,29,30.09,29.81,15,6,25,0.00
2013-5-14,100,79,56,64,56,47,94,53,17,29.82,29.60,14,4,25,0.00
2013-5-15,84,73,61,51,46,39,57,40,21,29.90,29.75,15,5,6,0.00
2013-5-16,84,67,60,67,38,-100,83,61,48,29.86,29.74,16,3,20,0.00
2013-5-17,87,74,61,66,58,-100,91,66,44,29.88,29.78,10,4,15,0.00
2013-5-18,85,75,62,69,65,58,91,71,52,29.87,29.67,18,6,24,0.00
2013-5-19,76,66,60,69,63,55,98,89,71,29.76,29.49,13,4,21,0.01
2013-5-20,76,66,57,61,57,53,97,76,52,29.63,29.48,14,5,24,0.00
2013-5-21,62,58,55,57,52,48,89,79,67,29.73,29.57,10,5,21,0.00
2013-5-22,60,55,52,54,51,49,94,85,74,29.97,29.73,11,6,20,0.00
2013-5-23,73,61,52,56,50,45,92,70,40,30.22,29.97,11,3,18,0.00
2013-5-24,75,63,49,55,50,44,84,64,46,30.28,30.00,15,7,24,0.00
2013-5-25,79,68,57,71,62,49,98,81,59,30.10,29.93,15,8,23,0.00
2013-5-26,82,70,64,73,66,61,95,88,72,29.98,29.81,16,8,21,0.00
2013-5-27,77,68,60,68,64,59,98,87,70,29.91,29.59,17,4,28,0.01
2013-5-28,80,71,61,71,65,60,98,82,59,29.72,29.61,12,2,23,0.01
2013-5-29,76,69,63,72,66,62,97,89,80,29.70,29.51,12,7,24,0.01
2013-5-30,77,66,60,68,62,55,97,87,70,29.60,29.49,12,5,20,0.01
2013-5-31,80,68,57,61,54,48,90,63,36,29.69,29.57,10,4,24,0.00
2013-6-1,62,58,55,56,52,49,90,80,64,30.03,29.64,16,7,23,0.00
2013-6-2,70,59,52,52,49,46,91,71,48,30.11,30.00,9,2,15,0.00
2013-6-3,75,64,50,56,52,47,91,68,44,30.04,29.80,14,6,23,0.00
2013-6-4,74,66,59,66,61,56,95,84,72,29.97,29.84,13,3,23,0.00
2013-6-5,74,65,58,64,55,50,97,72,49,30.04,29.95,8,2,14,0.00
2013-6-6,74,64,54,60,54,50,88,71,50,29.99,29.94,8,2,14,0.00
2013-6-7,75,63,51,58,53,49,94,73,49,30.04,29.87,6,1,9,0.00
2013-6-8,69,62,58,65,58,52,98,87,73,29.88,29.63,16,5,16,0.00
2013-6-9,69,64,60,62,60,57,98,87,75,29.82,29.69,10,5,0,0.00
2013-6-10,79,67,55,69,62,54,98,84,61,29.88,29.74,13,3,0,0.00
2013-6-11,88,76,67,75,69,64,92,79,57,29.82,29.67,10,4,0,0.00
2013-6-12,87,77,63,75,67,55,88,72,54,30.01,29.64,11,5,0,0.00
2013-6-13,80,68,57,65,59,54,92,74,48,30.10,29.98,5,1,14,0.00
2013-6-14,90,74,62,77,67,59,96,80,62,30.03,29.72,20,6,26,0.00
2013-6-15,83,73,64,73,68,63,98,84,61,29.94,29.79,13,2,20,0.01
2013-6-16,88,75,67,72,67,61,99,77,46,29.98,29.92,7,1,14,0.00
2013-6-17,89,76,64,66,62,57,90,66,42,30.01,29.93,6,1,12,0.00
2013-6-18,85,72,63,66,61,57,92,70,41,30.07,29.96,6,0,8,0.00
2013-6-19,87,76,63,71,65,58,93,71,52,30.00,29.87,10,4,17,0.00
2013-6-20,90,78,70,76,69,64,87,76,61,29.93,29.79,19,6,21,0.00
2013-6-22,91,85,69,77,71,65,89,63,55,29.89,29.76,26,11,0,0.00
2013-6-23,81,74,65,72,68,63,94,82,69,29.90,29.69,15,3,6,0.00
2013-6-24,83,76,66,76,72,64,95,87,75,29.97,29.69,20,4,32,0.01
2013-6-25,86,79,70,79,73,68,95,81,66,29.78,29.65,12,2,21,0.01
2013-6-26,94,82,72,75,71,64,98,72,38,29.88,29.67,9,2,15,0.00
2013-6-27,88,74,67,75,70,65,97,87,61,29.98,29.86,11,0,14,0.00
2013-6-28,86,77,66,70,64,56,96,67,42,29.98,29.88,12,4,22,0.00
2013-6-29,82,73,66,63,60,57,77,63,47,29.95,29.88,13,4,24,0.00
2013-6-30,81,69,58,63,58,55,92,70,43,30.11,29.94,5,1,14,0.00
2013-7-1,87,71,56,62,57,52,90,66,38,30.20,30.10,4,1,12,0.00
2013-7-2,84,69,57,64,60,55,97,74,43,30.17,30.05,6,1,15,0.00
2013-7-3,89,72,56,67,60,55,98,70,36,30.07,29.94,7,1,11,0.00
2013-7-4,88,75,61,66,60,56,85,62,39,29.98,29.87,12,3,18,0.00
2013-7-5,89,78,67,70,65,59,78,65,47,29.90,29.80,12,4,17,0.00
2013-7-6,91,80,72,71,67,62,78,65,47,29.85,29.78,11,5,17,0.00
2013-7-7,96,84,73,77,70,64,83,64,47,29.90,29.80,10,3,17,0.00
2013-7-8,91,80,74,76,73,-100,96,81,57,29.96,29.88,7,1,14,0.00
2013-7-9,99,86,74,79,75,70,90,71,48,29.96,29.84,7,1,12,0.00
2013-7-10,87,77,68,73,65,-100,94,71,52,30.10,29.95,2,0,9,0.00
2013-7-11,88,75,63,69,64,59,94,71,47,30.09,29.94,7,2,0,0.00
2013-7-12,92,79,68,77,68,61,81,69,57,29.98,29.87,9,4,0,0.00
2013-7-13,93,82,73,77,70,65,79,69,53,29.96,29.90,9,5,0,0.00
2013-7-14,89,78,69,69,66,63,82,67,44,30.13,29.96,10,3,0,0.00
2013-7-15,91,77,63,74,68,61,95,75,52,30.18,30.08,6,1,0,0.00
2013-7-16,93,81,69,73,69,66,93,70,44,30.25,30.14,5,1,0,0.00
2013-7-17,97,83,70,75,71,68,94,71,44,30.30,30.15,6,1,8,0.00
2013-7-18,96,85,74,75,71,69,87,65,43,30.16,29.92,12,3,21,0.00
2013-7-19,97,83,74,78,70,66,76,65,39,29.94,29.87,7,1,11,0.00
2013-7-20,92,77,65,70,64,-100,93,67,36,29.99,29.82,9,1,13,0.00
2013-7-21,94,80,69,75,70,65,94,75,49,29.90,29.76,11,1,18,0.00
2013-7-22,98,82,67,79,72,64,98,74,45,29.85,29.74,8,1,13,0.00
2013-7-23,85,74,65,69,65,62,95,77,55,30.03,29.85,8,1,13,0.00
2013-7-24,87,72,59,68,63,57,95,75,49,30.09,29.98,6,0,10,0.00
2013-7-25,85,75,68,70,66,63,95,77,56,30.03,29.96,10,2,17,0.00
2013-7-26,80,71,60,68,61,54,97,73,46,30.11,29.97,8,2,22,0.00
2013-7-27,77,65,54,55,52,49,93,67,40,30.13,29.99,7,1,14,0.00
2013-7-28,81,64,46,57,51,44,98,67,38,30.08,29.99,5,0,8,0.00
2013-7-29,67,63,58,65,59,50,96,87,73,30.04,29.99,9,2,15,0.00
2013-7-30,77,70,65,69,66,64,99,90,75,30.11,30.00,5,0,8,0.00
2013-7-31,89,74,61,71,66,60,99,78,53,30.15,30.03,3,0,8,0.00
2013-8-1,90,72,61,73,67,60,99,85,52,30.09,29.84,13,2,23,0.01
2013-8-2,86,75,65,74,68,61,98,82,65,30.01,29.83,8,1,15,0.01
2013-8-3,79,70,62,66,62,59,93,75,59,30.18,30.01,8,0,12,0.00
2013-8-4,80,70,58,69,63,55,92,79,64,30.19,30.01,9,2,15,0.00
2013-8-5,88,76,69,78,72,66,97,88,67,30.03,29.83,7,1,13,0.00
2013-8-6,91,78,68,78,72,67,99,85,63,29.94,29.77,13,2,22,0.00
2013-8-7,86,76,66,72,66,62,94,74,50,29.98,29.81,5,0,9,0.00
2013-8-8,79,71,64,69,65,62,93,83,67,30.03,29.95,3,0,6,0.00
2013-8-9,82,72,60,71,65,59,99,81,56,30.14,30.01,4,0,9,0.00
2013-8-10,85,71,57,68,63,56,99,78,53,30.20,30.06,7,1,14,0.00
2013-8-11,88,76,65,73,67,61,92,77,57,30.11,29.96,8,2,15,0.00
2013-8-21,93,81,71,75,71,67,89,73,57,29.99,29.93,9,3,16,0.00
2013-8-22,85,77,70,74,70,67,94,80,63,30.11,29.96,6,1,12,0.00
2013-8-23,91,79,69,76,71,67,96,79,51,30.06,29.94,10,2,15,0.00
2013-8-24,93,82,76,76,69,-100,83,70,56,30.06,29.97,12,6,18,0.00
2013-8-25,97,85,76,76,73,71,86,69,48,30.10,30.01,11,4,21,0.00
2013-8-26,97,86,75,75,73,71,86,67,49,30.07,29.92,10,3,18,0.00
2013-8-27,97,83,76,73,70,68,76,67,46,29.94,29.89,8,5,18,0.00
2013-10-2,86,71,55,67,60,51,95,72,48,29.93,29.80,8,2,16,0.00
2013-10-3,78,68,61,66,63,60,97,83,67,29.87,29.70,20,1,25,0.01
2013-10-4,82,68,52,73,62,43,96,83,57,29.84,29.60,20,7,26,0.01
2013-10-5,52,46,42,42,37,35,87,70,56,29.93,29.80,12,6,23,0.00
2013-10-6,53,48,42,47,43,39,92,84,63,30.01,29.78,12,5,23,0.00
2013-10-7,76,55,38,47,42,36,95,68,32,30.08,29.95,4,1,0,0.00
2013-10-8,78,65,52,51,47,43,75,54,38,29.98,29.86,10,5,0,0.00
2013-10-9,79,66,55,56,52,48,79,63,43,29.97,29.89,9,5,0,0.00
2013-10-10,81,68,55,61,55,51,86,66,47,29.96,29.75,10,5,0,0.00
2013-10-18,51,42,33,40,34,30,92,71,48,30.11,29.98,6,1,0,0.00
2013-10-19,62,44,31,43,33,-100,93,70,42,29.98,29.78,9,2,0,0.00
2013-10-20,64,51,41,46,41,37,90,71,43,30.02,29.71,10,2,19,0.00
2013-10-21,55,41,29,39,35,27,94,79,52,30.11,29.92,5,1,12,0.00
2013-10-22,48,44,40,43,39,34,92,82,71,30.10,29.85,8,2,19,0.00
2013-10-23,49,39,29,42,36,27,95,87,73,30.19,30.03,2,0,11,0.00
2013-10-24,50,40,29,35,30,26,89,71,43,30.40,30.20,7,2,12,0.00
2013-10-25,59,50,29,38,34,26,89,58,43,30.38,30.09,8,5,20,0.00
2013-10-26,51,43,31,37,28,-100,89,60,47,30.22,30.13,7,2,13,0.00
2013-10-27,72,48,27,42,35,24,93,65,34,30.12,29.79,7,2,13,0.00
2013-10-28,55,46,40,41,36,-100,83,72,57,30.18,29.94,9,2,17,0.00
2013-10-29,52,47,43,51,45,39,98,94,83,30.17,29.93,16,3,27,0.00
2013-10-30,53,47,43,52,46,41,98,97,94,29.95,29.77,6,1,14,0.00